Time;durP1;ratioP1;P1;durP2;ratioP2;P2;SDS_P1;SDS_P2;PMS_P1;PMS_P2;Temp;Humidity;BMP_temperature;BMP_pressure;BME280_temperature;BME280_humidity;BME280_pressure;Samples;Min_cycle;Max_cycle;Signal;HPM_P1;HPM_P2
2023/04/03 00:00:41;;;;;;;1.87;1.33;;;7.20;99.90;;;;;;5013208;28;20190;-72
2023/04/03 00:03:07;;;;;;;2.90;1.57;;;7.10;99.90;;;;;;5012669;28;20178;-72
2023/04/03 00:05:33;;;;;;;2.17;1.50;;;7.10;99.90;;;;;;5012309;28;20209;-73
2023/04/03 00:08:00;;;;;;;2.00;1.27;;;7.10;99.90;;;;;;4994762;28;20585;-72
2023/04/03 00:10:26;;;;;;;2.65;1.95;;;7.00;99.90;;;;;;4995013;28;20580;-72
2023/04/03 00:12:52;;;;;;;3.03;1.60;;;7.00;99.90;;;;;;4994278;28;20813;-72
2023/04/03 00:15:18;;;;;;;3.87;2.13;;;6.90;99.90;;;;;;5012174;28;20232;-72
2023/04/03 00:17:44;;;;;;;3.93;1.97;;;6.80;99.90;;;;;;5020389;28;20585;-72
2023/04/03 00:20:10;;;;;;;3.00;1.67;;;6.80;99.90;;;;;;5008717;28;20199;-72
2023/04/03 00:22:35;;;;;;;4.53;1.42;;;6.70;99.90;;;;;;5011309;28;20178;-72
2023/04/03 00:25:01;;;;;;;4.37;2.13;;;6.60;99.90;;;;;;5011071;28;20240;-72
2023/04/03 00:27:27;;;;;;;2.50;1.60;;;6.60;99.90;;;;;;5011497;28;20230;-73
2023/04/03 00:29:52;;;;;;;2.30;2.03;;;6.50;99.90;;;;;;5011169;28;20178;-73
2023/04/03 00:32:18;;;;;;;3.13;2.10;;;6.50;99.90;;;;;;5010815;28;20182;-73
2023/04/03 00:34:44;;;;;;;2.90;2.47;;;6.40;99.90;;;;;;5012401;28;20248;-73
2023/04/03 00:37:10;;;;;;;2.67;2.30;;;6.30;99.90;;;;;;5011438;28;20607;-73
2023/04/03 00:39:36;;;;;;;3.95;2.70;;;6.30;99.90;;;;;;5011777;28;20646;-73
2023/04/03 00:42:02;;;;;;;4.47;1.97;;;6.20;99.90;;;;;;5010715;28;20201;-73
2023/04/03 00:44:28;;;;;;;2.43;1.70;;;6.20;99.90;;;;;;5011864;28;20264;-73
2023/04/03 00:46:53;;;;;;;2.10;1.90;;;6.10;99.90;;;;;;5011694;28;20993;-73
2023/04/03 00:49:19;;;;;;;2.70;2.27;;;6.10;99.90;;;;;;5011250;28;20179;-73
2023/04/03 00:51:46;;;;;;;2.78;2.13;;;6.00;99.90;;;;;;5017600;28;20700;-73
2023/04/03 00:54:12;;;;;;;3.78;2.30;;;5.90;99.90;;;;;;5029294;28;20212;-73
2023/04/03 00:56:39;;;;;;;3.60;2.30;;;5.90;99.90;;;;;;5029980;28;20178;-72
2023/04/03 00:59:22;;;;;;;3.17;2.65;;;5.80;99.90;;;;;;5031616;28;20269;-73
2023/04/03 01:01:49;;;;;;;2.28;1.85;;;5.80;99.90;;;;;;5020016;28;20269;-72
2023/04/03 01:04:40;;;;;;;2.30;2.10;;;5.70;99.90;;;;;;4991918;28;20199;-73
2023/04/03 01:07:09;;;;;;;4.20;1.95;;;5.60;99.90;;;;;;4977559;28;20177;-73
2023/04/03 01:09:35;;;;;;;2.90;1.73;;;5.60;99.90;;;;;;5011542;28;20170;-73
2023/04/03 01:12:23;;;;;;;2.25;1.95;;;5.50;99.90;;;;;;4982613;28;20217;-73
2023/04/03 01:15:01;;;;;;;2.72;1.65;;;5.50;99.90;;;;;;5009854;28;20190;-73
2023/04/03 01:17:28;;;;;;;3.50;1.98;;;5.40;99.90;;;;;;5012901;28;20174;-73
2023/04/03 01:20:18;;;;;;;2.13;1.50;;;5.40;99.90;;;;;;5009193;28;20202;-73
2023/04/03 01:23:07;;;;;;;2.10;1.58;;;5.40;99.90;;;;;;4992952;28;20174;-73
2023/04/03 01:25:35;;;;;;;2.83;1.33;;;5.30;99.90;;;;;;5009540;28;20201;-72
2023/04/03 01:28:01;;;;;;;3.67;1.80;;;5.30;99.90;;;;;;5009863;28;20170;-73
2023/04/03 01:30:40;;;;;;;2.20;1.50;;;5.30;99.90;;;;;;5010473;28;20178;-73
2023/04/03 01:33:06;;;;;;;2.58;1.40;;;5.30;99.90;;;;;;5009700;28;20173;-73
2023/04/03 01:35:33;;;;;;;3.38;1.50;;;5.20;99.90;;;;;;5009349;28;20237;-73
2023/04/03 01:37:58;;;;;;;2.30;1.50;;;5.20;99.90;;;;;;5011339;28;20174;-73
2023/04/03 01:40:25;;;;;;;1.70;1.30;;;5.20;99.90;;;;;;4993089;28;20289;-73
2023/04/03 01:42:51;;;;;;;5.72;1.30;;;5.20;99.90;;;;;;4992753;28;20166;-73
2023/04/03 01:45:17;;;;;;;2.13;1.38;;;5.10;99.90;;;;;;5009109;28;20251;-73
2023/04/03 01:47:42;;;;;;;3.07;1.60;;;5.10;99.90;;;;;;5009628;28;20194;-72
2023/04/03 01:50:09;;;;;;;2.40;1.33;;;5.10;99.90;;;;;;5009661;28;20647;-73
2023/04/03 01:52:35;;;;;;;2.75;1.52;;;5.10;99.90;;;;;;4995351;28;20320;-73
2023/04/03 01:55:00;;;;;;;2.40;1.50;;;5.00;99.90;;;;;;5010915;28;20240;-73
2023/04/03 01:57:26;;;;;;;1.80;1.40;;;5.00;99.90;;;;;;5009433;28;20610;-73
2023/04/03 01:59:52;;;;;;;2.50;1.30;;;5.00;99.90;;;;;;4993276;28;20202;-73
2023/04/03 02:02:20;;;;;;;2.10;1.67;;;4.90;99.90;;;;;;5011350;28;20325;-74
2023/04/03 02:04:46;;;;;;;3.75;1.55;;;4.90;99.90;;;;;;5013422;28;20187;-72
2023/04/03 02:07:12;;;;;;;3.10;1.60;;;4.80;99.90;;;;;;5012776;28;20642;-72
2023/04/03 02:09:37;;;;;;;3.43;1.87;;;4.80;99.90;;;;;;5014678;28;20580;-73
2023/04/03 02:12:03;;;;;;;3.35;1.63;;;4.80;99.90;;;;;;4996452;28;20595;-73
2023/04/03 02:14:30;;;;;;;3.90;2.00;;;4.70;99.90;;;;;;4996318;28;20198;-75
2023/04/03 02:16:55;;;;;;;3.40;1.73;;;4.70;99.90;;;;;;4996709;28;20201;-74
2023/04/03 02:19:22;;;;;;;2.17;1.60;;;4.60;99.90;;;;;;5012954;28;20624;-74
2023/04/03 02:21:48;;;;;;;3.38;2.25;;;4.60;99.90;;;;;;5014830;28;20193;-74
2023/04/03 02:24:14;;;;;;;2.38;1.60;;;4.60;99.90;;;;;;5015669;28;20186;-74
2023/04/03 02:26:40;;;;;;;3.00;1.90;;;4.50;99.90;;;;;;5014187;28;20174;-73
2023/04/03 02:29:06;;;;;;;2.33;1.50;;;4.50;99.90;;;;;;4996128;28;20711;-74
2023/04/03 02:31:32;;;;;;;2.10;1.77;;;4.40;99.90;;;;;;5000028;28;20661;-74
2023/04/03 02:33:59;;;;;;;2.63;1.65;;;4.40;99.90;;;;;;5012946;28;20177;-74
2023/04/03 02:36:25;;;;;;;2.73;2.07;;;4.40;99.90;;;;;;5012486;28;20631;-74
2023/04/03 02:38:55;;;;;;;2.78;1.50;;;4.30;99.90;;;;;;4996397;28;20576;-74
2023/04/03 02:41:21;;;;;;;2.37;1.67;;;4.30;99.90;;;;;;5012040;28;20182;-74
2023/04/03 02:43:48;;;;;;;2.60;1.60;;;4.20;99.90;;;;;;4996128;28;20186;-73
2023/04/03 02:46:15;;;;;;;2.03;1.50;;;4.20;99.90;;;;;;4995770;28;20190;-73
2023/04/03 02:48:41;;;;;;;3.63;1.58;;;4.20;99.90;;;;;;5012781;28;20178;-73
2023/04/03 02:51:07;;;;;;;4.00;2.07;;;4.20;99.90;;;;;;5011729;28;20236;-73
2023/04/03 02:53:33;;;;;;;4.03;2.17;;;4.10;99.90;;;;;;4996079;28;20261;-73
2023/04/03 02:56:06;;;;;;;3.45;2.03;;;4.10;99.90;;;;;;4995865;28;20201;-74
2023/04/03 02:58:31;;;;;;;1.90;1.43;;;4.10;99.90;;;;;;5011923;28;20182;-73
2023/04/03 03:00:59;;;;;;;3.47;1.70;;;4.10;99.90;;;;;;5013330;28;20198;-74
2023/04/03 03:03:24;;;;;;;3.07;1.97;;;4.10;99.90;;;;;;5028034;28;20167;-73
2023/04/03 03:06:00;;;;;;;4.33;1.80;;;4.00;99.90;;;;;;4995672;28;20593;-73
2023/04/03 03:08:26;;;;;;;1.90;1.70;;;4.00;99.90;;;;;;5016507;28;20257;-73
2023/04/03 03:10:52;;;;;;;2.60;1.80;;;4.00;99.90;;;;;;5012046;28;20265;-74
2023/04/03 03:13:17;;;;;;;4.90;2.13;;;4.00;99.90;;;;;;4994347;28;20236;-73
2023/04/03 03:15:43;;;;;;;2.70;1.93;;;4.00;99.90;;;;;;5012898;28;20186;-74
2023/04/03 03:18:09;;;;;;;3.30;2.10;;;4.00;99.90;;;;;;5041601;28;20268;-74
2023/04/03 03:20:34;;;;;;;3.33;2.00;;;4.00;99.90;;;;;;4994650;28;20205;-75
2023/04/03 03:23:00;;;;;;;2.53;1.83;;;3.90;99.90;;;;;;5012555;28;20202;-75
2023/04/03 03:25:26;;;;;;;4.95;2.20;;;3.90;99.90;;;;;;5011430;28;20252;-73
2023/04/03 03:27:52;;;;;;;2.00;1.60;;;3.90;99.90;;;;;;5011891;28;20178;-73
2023/04/03 03:30:18;;;;;;;4.50;2.27;;;3.90;99.90;;;;;;5011394;28;20174;-74
2023/04/03 03:32:45;;;;;;;2.60;2.03;;;3.90;99.90;;;;;;4995256;28;20210;-74
2023/04/03 03:35:12;;;;;;;3.67;1.93;;;3.90;99.90;;;;;;5011149;28;20222;-74
2023/04/03 03:37:37;;;;;;;3.63;1.50;;;3.90;99.90;;;;;;4995284;28;20178;-74
2023/04/03 03:40:04;;;;;;;1.97;1.43;;;3.90;99.90;;;;;;4995005;28;20229;-74
2023/04/03 03:42:31;;;;;;;2.72;1.65;;;4.00;99.90;;;;;;4994707;28;20593;-75
2023/04/03 03:44:56;;;;;;;2.53;1.70;;;4.00;99.90;;;;;;4998031;28;20206;-75
2023/04/03 03:47:22;;;;;;;2.70;1.80;;;4.00;99.90;;;;;;4994990;28;20170;-75
2023/04/03 03:49:48;;;;;;;2.73;1.97;;;4.00;99.90;;;;;;5011590;28;20178;-74
2023/04/03 03:52:15;;;;;;;3.78;1.88;;;4.00;99.90;;;;;;5010687;28;20182;-74
2023/04/03 03:54:41;;;;;;;2.17;1.60;;;4.00;99.90;;;;;;4994948;28;20198;-74
2023/04/03 03:57:07;;;;;;;3.20;1.65;;;4.00;99.90;;;;;;5010797;28;20182;-74
2023/04/03 03:59:33;;;;;;;4.50;1.33;;;4.00;99.90;;;;;;4994849;28;20691;-75
2023/04/03 04:01:59;;;;;;;4.50;1.40;;;4.00;99.90;;;;;;5010465;28;20589;-75
2023/04/03 04:04:25;;;;;;;1.90;1.07;;;4.10;99.90;;;;;;5026223;23;20887;-77
2023/04/03 04:06:51;;;;;;;3.63;1.77;;;4.10;99.90;;;;;;5008395;28;20628;-77
2023/04/03 04:09:18;;;;;;;2.10;1.30;;;4.00;99.90;;;;;;5007520;28;20179;-77
2023/04/03 04:11:44;;;;;;;2.65;1.77;;;4.00;99.90;;;;;;4994416;28;20181;-77
2023/04/03 04:14:13;;;;;;;3.38;1.00;;;4.00;99.90;;;;;;4998651;28;20322;-77
2023/04/03 04:16:39;;;;;;;3.30;1.65;;;4.00;99.90;;;;;;5010884;28;20182;-77
2023/04/03 04:19:10;;;;;;;1.70;1.10;;;4.00;99.90;;;;;;5010670;28;20170;-77
2023/04/03 04:21:38;;;;;;;4.93;1.40;;;4.00;99.90;;;;;;4975831;28;20182;-77
2023/04/03 04:24:04;;;;;;;2.90;1.77;;;4.00;99.90;;;;;;4974252;28;20559;-77
2023/04/03 04:26:29;;;;;;;2.28;1.60;;;4.00;99.90;;;;;;4991256;28;20607;-77
2023/04/03 04:28:55;;;;;;;2.90;1.47;;;4.00;99.90;;;;;;4974543;28;20646;-77
2023/04/03 04:31:21;;;;;;;4.27;1.87;;;4.00;99.90;;;;;;4974488;28;20193;-77
2023/04/03 04:33:47;;;;;;;4.00;1.40;;;4.00;99.90;;;;;;4974461;28;20226;-76
2023/04/03 04:36:14;;;;;;;3.17;1.70;;;4.00;99.90;;;;;;4991106;28;20170;-76
2023/04/03 04:38:42;;;;;;;2.78;1.20;;;4.00;99.90;;;;;;4992222;28;20182;-76
2023/04/03 04:41:08;;;;;;;1.83;1.10;;;4.00;99.90;;;;;;4974257;28;20198;-76
2023/04/03 04:43:34;;;;;;;2.72;1.17;;;4.00;99.90;;;;;;4990910;28;20207;-76
2023/04/03 04:46:11;;;;;;;2.58;1.00;;;4.00;99.90;;;;;;4992765;28;20174;-76
2023/04/03 04:48:42;;;;;;;2.00;1.00;;;4.00;99.90;;;;;;4975511;28;20167;-76
2023/04/03 04:51:10;;;;;;;1.70;1.10;;;4.00;99.90;;;;;;4989943;28;20778;-76
2023/04/03 04:53:37;;;;;;;2.35;1.23;;;4.00;99.90;;;;;;4974513;28;20203;-77
2023/04/03 04:56:04;;;;;;;2.78;1.40;;;4.00;99.90;;;;;;4990344;28;20717;-77
2023/04/03 04:58:32;;;;;;;3.72;1.50;;;4.00;99.90;;;;;;4990608;28;20183;-77
2023/04/03 05:01:09;;;;;;;2.58;1.25;;;4.00;99.90;;;;;;4973335;28;20265;-77
2023/04/03 05:03:40;;;;;;;1.60;1.00;;;4.00;99.90;;;;;;4990251;28;20553;-77
2023/04/03 05:06:06;;;;;;;3.30;1.50;;;4.00;99.90;;;;;;4990293;28;20167;-77
2023/04/03 05:08:33;;;;;;;2.15;1.27;;;4.00;99.90;;;;;;4973861;28;20178;-77
2023/04/03 05:11:00;;;;;;;2.42;1.23;;;4.00;99.90;;;;;;4997695;28;20179;-77
2023/04/03 05:13:27;;;;;;;1.70;0.95;;;4.00;99.90;;;;;;4992805;28;20174;-77
2023/04/03 05:15:55;;;;;;;2.92;0.90;;;4.00;99.90;;;;;;5010078;28;20639;-77
2023/04/03 05:18:21;;;;;;;2.03;1.20;;;4.00;99.90;;;;;;5009824;28;20182;-77
2023/04/03 05:20:51;;;;;;;1.98;1.10;;;4.00;99.90;;;;;;4982256;28;20674;-77
2023/04/03 05:23:18;;;;;;;2.47;1.63;;;4.00;99.90;;;;;;4977050;28;20175;-77
2023/04/03 05:25:46;;;;;;;3.17;1.50;;;4.10;99.90;;;;;;4992000;28;20179;-77
2023/04/03 05:28:13;;;;;;;1.80;1.20;;;4.10;99.90;;;;;;4973941;28;20610;-77
2023/04/03 05:30:38;;;;;;;1.60;1.03;;;4.10;99.90;;;;;;4990560;28;20178;-77
2023/04/03 05:33:05;;;;;;;2.53;1.57;;;4.10;99.90;;;;;;4989628;28;20644;-77
2023/04/03 05:35:41;;;;;;;3.35;1.00;;;4.10;99.90;;;;;;4990808;28;20187;-77
2023/04/03 05:38:10;;;;;;;2.30;1.10;;;4.20;99.90;;;;;;4994284;28;20175;-77
2023/04/03 05:40:36;;;;;;;2.13;1.20;;;4.20;99.90;;;;;;4994072;28;20573;-77
2023/04/03 05:43:02;;;;;;;2.17;1.33;;;4.20;99.90;;;;;;4977338;28;20234;-77
2023/04/03 05:45:32;;;;;;;2.38;1.08;;;4.20;99.90;;;;;;4994190;28;20195;-77
2023/04/03 05:47:58;;;;;;;3.03;1.10;;;4.20;99.90;;;;;;4993963;28;20175;-77
2023/04/03 05:50:24;;;;;;;2.85;1.15;;;4.30;99.90;;;;;;4978086;28;20264;-77
2023/04/03 05:52:56;;;;;;;2.00;1.10;;;4.30;99.90;;;;;;4977633;28;20655;-77
2023/04/03 05:55:22;;;;;;;1.80;1.13;;;4.40;99.90;;;;;;4993858;28;20234;-78
2023/04/03 05:57:48;;;;;;;2.10;1.10;;;4.40;99.90;;;;;;4991225;28;20191;-79
2023/04/03 06:00:18;;;;;;;3.43;1.07;;;4.50;99.90;;;;;;4980428;28;20294;-79
2023/04/03 06:02:53;;;;;;;2.25;1.00;;;4.50;99.90;;;;;;4991554;28;20653;-79
2023/04/03 06:05:22;;;;;;;2.45;1.15;;;4.50;99.90;;;;;;4978988;28;20207;-78
2023/04/03 06:07:49;;;;;;;1.90;1.00;;;4.70;99.90;;;;;;4983893;28;20182;-77
2023/04/03 06:10:16;;;;;;;2.67;0.95;;;4.70;99.90;;;;;;4993064;28;20167;-78
2023/04/03 06:12:42;;;;;;;3.08;1.65;;;4.80;99.90;;;;;;4976695;28;20183;-77
2023/04/03 06:15:09;;;;;;;3.27;1.10;;;4.90;99.90;;;;;;4976751;28;20199;-77
2023/04/03 06:17:37;;;;;;;1.95;1.30;;;4.90;99.90;;;;;;4997270;28;20178;-77
2023/04/03 06:20:04;;;;;;;2.55;1.30;;;5.00;99.90;;;;;;4983372;28;20225;-77
2023/04/03 06:22:30;;;;;;;4.00;2.10;;;5.00;99.90;;;;;;4993643;28;20171;-78
2023/04/03 06:24:57;;;;;;;3.58;1.02;;;5.10;99.90;;;;;;4994809;28;20198;-78
2023/04/03 06:27:23;;;;;;;5.50;1.10;;;5.10;99.90;;;;;;4992762;28;20175;-78
2023/04/03 06:29:49;;;;;;;3.20;1.23;;;5.10;99.90;;;;;;4993390;28;20175;-77
2023/04/03 06:32:15;;;;;;;2.05;1.20;;;5.20;99.90;;;;;;4992364;28;20249;-77
2023/04/03 06:34:41;;;;;;;2.90;1.20;;;5.20;99.90;;;;;;4994407;28;20273;-77
2023/04/03 06:37:15;;;;;;;2.30;1.23;;;5.30;99.90;;;;;;4993150;28;20187;-77
2023/04/03 06:39:41;;;;;;;5.82;1.45;;;5.30;99.90;;;;;;4994247;28;20210;-77
2023/04/03 06:42:07;;;;;;;2.78;1.30;;;5.40;99.90;;;;;;4976701;28;20164;-77
2023/04/03 06:44:37;;;;;;;4.15;1.20;;;5.50;99.90;;;;;;4975901;28;20197;-77
2023/04/03 06:47:04;;;;;;;2.80;1.23;;;5.60;99.90;;;;;;4992172;28;20185;-78
2023/04/03 06:49:30;;;;;;;3.05;1.20;;;5.60;99.90;;;;;;4991451;28;20179;-77
2023/04/03 06:51:56;;;;;;;3.60;1.10;;;5.70;99.90;;;;;;4992679;28;20175;-77
2023/04/03 06:54:22;;;;;;;2.97;1.33;;;5.80;99.90;;;;;;4976142;28;20704;-77
2023/04/03 06:56:48;;;;;;;2.80;1.30;;;6.00;99.90;;;;;;4993322;28;20179;-77
2023/04/03 06:59:14;;;;;;;3.13;1.40;;;6.20;99.90;;;;;;4993509;28;20191;-78
2023/04/03 07:01:41;;;;;;;3.10;1.00;;;6.80;99.90;;;;;;4980434;28;20601;-79
2023/04/03 07:04:08;;;;;;;2.90;1.33;;;7.70;99.90;;;;;;5003724;28;20210;-78
2023/04/03 07:06:34;;;;;;;2.15;1.00;;;8.80;99.90;;;;;;5011882;28;20273;-79
2023/04/03 07:09:01;;;;;;;4.97;1.67;;;10.00;99.90;;;;;;5013404;28;20176;-79
2023/04/03 07:11:27;;;;;;;3.47;1.57;;;11.30;99.90;;;;;;5012536;28;20178;-79
2023/04/03 07:13:54;;;;;;;3.50;1.03;;;12.40;99.90;;;;;;5009441;28;20967;-79
2023/04/03 07:16:20;;;;;;;3.40;1.20;;;13.60;99.90;;;;;;5002004;28;20613;-78
2023/04/03 07:18:46;;;;;;;4.73;1.20;;;14.60;99.90;;;;;;5013295;28;20597;-77
2023/04/03 07:21:12;;;;;;;2.83;1.10;;;15.70;99.90;;;;;;4997736;28;20630;-77
2023/04/03 07:23:39;;;;;;;2.77;1.00;;;16.60;99.90;;;;;;4993010;28;20615;-77
2023/04/03 07:26:05;;;;;;;1.90;0.90;;;17.50;99.90;;;;;;4976019;28;20574;-77
2023/04/03 07:28:32;;;;;;;3.80;1.10;;;18.20;99.90;;;;;;4992907;28;20591;-77
2023/04/03 07:31:08;;;;;;;1.90;0.90;;;19.00;99.90;;;;;;4992961;28;20570;-77
2023/04/03 07:33:34;;;;;;;3.30;1.73;;;19.60;99.90;;;;;;4991901;28;20629;-77
2023/04/03 07:36:01;;;;;;;3.70;1.00;;;20.10;99.90;;;;;;4993259;28;20578;-77
2023/04/03 07:38:27;;;;;;;3.33;1.10;;;20.40;99.90;;;;;;4991817;28;20677;-77
2023/04/03 07:40:53;;;;;;;2.73;0.80;;;20.80;99.90;;;;;;4992941;28;20728;-77
2023/04/03 07:43:21;;;;;;;6.03;0.90;;;21.30;99.90;;;;;;4991154;28;20587;-77
2023/04/03 07:45:50;;;;;;;2.70;0.90;;;21.40;96.70;;;;;;5008140;28;20179;-78
2023/04/03 07:48:20;;;;;;;4.47;1.00;;;21.50;95.90;;;;;;4992768;28;20621;-78
2023/04/03 07:50:46;;;;;;;4.03;0.93;;;21.50;94.00;;;;;;4993138;28;20629;-78
2023/04/03 07:53:12;;;;;;;2.47;0.87;;;21.40;91.80;;;;;;4997006;28;20578;-78
2023/04/03 07:55:42;;;;;;;4.13;0.90;;;21.30;86.00;;;;;;4991236;28;20242;-78
2023/04/03 07:58:14;;;;;;;4.23;0.80;;;21.50;87.30;;;;;;5000902;28;21028;-78
2023/04/03 08:00:40;;;;;;;2.57;0.83;;;21.70;87.10;;;;;;5004865;28;20722;-78
2023/04/03 08:03:07;;;;;;;4.03;1.00;;;21.90;90.50;;;;;;5011067;28;20573;-78
2023/04/03 08:05:42;;;;;;;2.57;0.90;;;22.20;91.50;;;;;;5011744;28;20656;-77
2023/04/03 08:08:09;;;;;;;2.97;0.93;;;22.60;84.60;;;;;;4995054;28;20584;-78
2023/04/03 08:10:35;;;;;;;3.70;0.83;;;22.90;90.20;;;;;;5011880;28;20641;-77
2023/04/03 08:13:01;;;;;;;2.20;0.80;;;23.30;83.40;;;;;;5010610;28;20933;-78
2023/04/03 08:15:27;;;;;;;1.83;0.70;;;23.70;86.30;;;;;;5011017;28;20608;-79
2023/04/03 08:17:54;;;;;;;3.03;0.80;;;24.00;78.70;;;;;;4977692;28;20270;-78
2023/04/03 08:20:21;;;;;;;2.40;0.80;;;24.00;72.80;;;;;;4993361;28;20591;-78
2023/04/03 08:22:47;;;;;;;2.37;0.70;;;24.00;69.30;;;;;;4992873;28;20590;-78
2023/04/03 08:25:13;;;;;;;2.97;0.80;;;24.00;67.20;;;;;;4994712;28;20649;-78
2023/04/03 08:27:39;;;;;;;2.47;0.70;;;24.20;71.40;;;;;;4981188;28;20175;-78
2023/04/03 08:30:06;;;;;;;1.57;0.83;;;24.40;70.90;;;;;;5005404;28;20771;-78
2023/04/03 08:32:34;;;;;;;4.40;1.00;;;24.60;71.70;;;;;;4993301;28;20181;-78
2023/04/03 08:35:00;;;;;;;5.10;1.23;;;24.50;57.60;;;;;;4993480;28;20955;-79
2023/04/03 08:37:36;;;;;;;2.17;0.80;;;24.10;58.30;;;;;;4995210;28;20558;-79
2023/04/03 08:40:05;;;;;;;3.63;1.00;;;24.00;61.10;;;;;;4982415;28;20595;-78
2023/04/03 08:42:49;;;;;;;2.17;0.90;;;24.00;61.20;;;;;;4990020;28;20634;-78
2023/04/03 08:45:33;;;;;;;2.67;1.00;;;24.20;61.00;;;;;;4974791;28;20603;-78
2023/04/03 08:48:27;;;;;;;3.00;0.80;;;24.30;56.60;;;;;;4997147;28;20581;-78
2023/04/03 08:50:57;;;;;;;1.80;0.70;;;24.40;52.80;;;;;;4972667;28;20643;-80
2023/04/03 08:53:28;;;;;;;1.90;0.70;;;24.60;61.80;;;;;;4973022;28;20604;-79
2023/04/03 08:55:55;;;;;;;1.80;0.80;;;24.80;61.60;;;;;;4991162;28;20619;-78
2023/04/03 08:58:29;;;;;;;4.03;0.70;;;24.90;61.40;;;;;;4992462;28;20630;-80
2023/04/03 09:01:00;;;;;;;1.80;0.70;;;25.00;57.20;;;;;;4987401;28;20759;-80
2023/04/03 09:03:33;;;;;;;3.10;1.50;;;24.80;55.50;;;;;;4972623;28;20608;-79
2023/04/03 09:06:29;;;;;;;2.97;0.93;;;24.90;58.10;;;;;;4971138;28;20606;-79
2023/04/03 09:09:10;;;;;;;2.37;0.80;;;25.10;53.90;;;;;;4971472;28;20583;-79
2023/04/03 09:11:51;;;;;;;1.77;0.80;;;25.30;54.00;;;;;;4971050;28;20586;-79
2023/04/03 09:14:37;;;;;;;2.20;0.80;;;24.90;49.10;;;;;;4990942;28;20649;-79
2023/04/03 09:17:21;;;;;;;2.77;0.90;;;24.70;50.40;;;;;;4989917;28;20585;-78
2023/04/03 09:20:04;;;;;;;1.60;0.70;;;24.30;48.40;;;;;;4990423;28;21185;-78
2023/04/03 09:22:33;;;;;;;2.37;0.60;;;23.80;47.70;;;;;;4989586;28;20618;-79
2023/04/03 09:25:09;;;;;;;1.60;0.70;;;23.50;45.50;;;;;;4991495;28;20625;-78
2023/04/03 09:27:34;;;;;;;1.80;0.70;;;23.20;48.50;;;;;;4989784;28;20585;-78
2023/04/03 09:30:00;;;;;;;1.40;0.60;;;23.00;45.90;;;;;;4990262;28;21213;-78
2023/04/03 09:32:35;;;;;;;1.60;0.57;;;23.20;48.20;;;;;;4973217;28;20202;-79
2023/04/03 09:35:30;;;;;;;1.83;0.63;;;23.30;48.00;;;;;;4990346;28;20222;-79
2023/04/03 09:38:19;;;;;;;1.73;0.50;;;23.60;48.70;;;;;;4989574;28;20633;-80
2023/04/03 09:41:01;;;;;;;2.37;0.80;;;23.90;49.10;;;;;;4989764;28;20586;-80
2023/04/03 09:43:32;;;;;;;2.17;0.87;;;24.00;47.50;;;;;;4992733;28;20931;-80
2023/04/03 09:46:28;;;;;;;1.77;0.50;;;23.80;44.00;;;;;;4990749;28;20586;-79
2023/04/03 09:49:02;;;;;;;2.50;0.70;;;24.00;47.50;;;;;;4990911;28;20586;-79
2023/04/03 09:51:29;;;;;;;2.47;0.70;;;24.00;47.00;;;;;;4997667;28;20700;-80
2023/04/03 09:53:56;;;;;;;2.07;0.80;;;24.20;46.40;;;;;;4987145;28;20624;-78
2023/04/03 09:56:26;;;;;;;2.70;0.67;;;24.00;43.90;;;;;;4974585;28;20641;-80
2023/04/03 09:59:15;;;;;;;1.83;0.70;;;24.10;46.10;;;;;;4970369;28;20582;-79
2023/04/03 10:01:43;;;;;;;5.30;0.90;;;24.10;40.20;;;;;;4970349;28;20593;-79
2023/04/03 10:04:17;;;;;;;2.37;0.70;;;24.00;43.30;;;;;;4971997;28;20742;-79
2023/04/03 10:06:46;;;;;;;4.53;0.80;;;23.90;43.20;;;;;;4971885;28;20574;-79
2023/04/03 10:09:38;;;;;;;4.97;0.70;;;23.90;42.30;;;;;;4980085;28;20594;-78
2023/04/03 10:12:10;;;;;;;3.70;0.90;;;23.80;41.30;;;;;;4990790;28;20567;-79
2023/04/03 10:14:55;;;;;;;1.90;1.07;;;23.80;39.10;;;;;;4993386;28;20656;-79
2023/04/03 10:17:21;;;;;;;2.10;0.60;;;23.40;38.20;;;;;;5001371;28;20574;-78
2023/04/03 10:20:22;;;;;;;2.30;0.60;;;23.10;38.70;;;;;;5008033;28;20713;-78
2023/04/03 10:23:12;;;;;;;1.87;0.77;;;22.70;34.00;;;;;;4993515;28;20277;-79
2023/04/03 10:25:50;;;;;;;1.50;0.60;;;22.20;34.60;;;;;;4998239;28;20810;-79
2023/04/03 10:28:40;;;;;;;2.20;0.70;;;22.00;37.60;;;;;;5005033;28;20684;-78
2023/04/03 10:31:29;;;;;;;2.30;0.83;;;21.90;37.30;;;;;;5013376;28;20621;-79
2023/04/03 10:34:19;;;;;;;2.10;0.60;;;21.70;33.20;;;;;;5012705;28;20623;-78
2023/04/03 10:37:18;;;;;;;1.93;0.70;;;21.70;33.10;;;;;;5013774;28;20565;-79
2023/04/03 10:40:45;;;;;;;2.33;0.60;;;21.40;34.50;;;;;;5014011;28;20574;-78
2023/04/03 10:43:44;;;;;;;1.43;0.60;;;21.00;32.70;;;;;;4983213;28;20589;-75
2023/04/03 10:46:39;;;;;;;2.10;0.60;;;20.10;33.50;;;;;;4972175;28;20642;-75
2023/04/03 10:49:38;;;;;;;1.60;0.60;;;19.80;32.10;;;;;;4999704;28;20593;-75
2023/04/03 10:52:21;;;;;;;1.33;0.60;;;19.60;36.60;;;;;;5012053;28;20609;-75
2023/04/03 10:55:05;;;;;;;2.73;0.63;;;19.60;36.70;;;;;;5012291;28;20647;-75
2023/04/03 10:57:31;;;;;;;1.77;0.60;;;19.30;37.00;;;;;;5012162;28;20573;-75
2023/04/03 11:00:01;;;;;;;1.50;0.60;;;19.10;36.00;;;;;;5013578;28;20561;-75
2023/04/03 11:02:57;;;;;;;1.40;0.50;;;19.20;37.70;;;;;;5012119;28;20274;-75
2023/04/03 11:05:40;;;;;;;1.30;0.60;;;19.30;38.80;;;;;;5013142;28;20620;-75
2023/04/03 11:08:15;;;;;;;1.80;0.60;;;19.70;39.20;;;;;;5012395;28;20585;-75
2023/04/03 11:10:53;;;;;;;1.90;0.60;;;20.00;38.00;;;;;;4974161;28;21270;-75
2023/04/03 11:13:36;;;;;;;1.63;0.60;;;19.90;36.70;;;;;;4972842;28;21222;-74
2023/04/03 11:16:03;;;;;;;3.60;0.60;;;19.70;35.60;;;;;;4974387;28;20594;-74
2023/04/03 11:18:40;;;;;;;1.70;0.63;;;19.40;36.70;;;;;;4974462;28;20639;-74
2023/04/03 11:21:19;;;;;;;2.23;0.70;;;19.30;34.30;;;;;;4986571;28;20628;-75
2023/04/03 11:23:46;;;;;;;1.87;0.60;;;19.20;33.00;;;;;;4993545;28;20589;-75
2023/04/03 11:26:15;;;;;;;1.90;0.70;;;19.10;36.80;;;;;;4991926;28;20621;-74
2023/04/03 11:28:42;;;;;;;2.20;0.70;;;18.90;35.90;;;;;;4993678;28;20613;-74
2023/04/03 11:31:19;;;;;;;1.87;0.70;;;18.80;35.60;;;;;;4992759;28;20633;-74
2023/04/03 11:34:10;;;;;;;3.60;0.67;;;18.80;35.90;;;;;;4991285;28;20617;-74
2023/04/03 11:36:53;;;;;;;2.10;0.60;;;18.90;38.30;;;;;;4975592;28;20578;-74
2023/04/03 11:39:25;;;;;;;3.30;1.10;;;19.10;38.20;;;;;;4993360;28;20601;-74
2023/04/03 11:41:51;;;;;;;2.40;0.70;;;19.10;37.60;;;;;;4991425;28;20579;-74
2023/04/03 11:44:37;;;;;;;3.10;0.70;;;19.20;37.30;;;;;;5002194;28;20695;-74
2023/04/03 11:47:05;;;;;;;3.30;0.70;;;19.10;35.70;;;;;;5011270;28;20587;-74
2023/04/03 11:49:57;;;;;;;2.37;0.70;;;19.00;37.00;;;;;;5011386;28;20624;-75
2023/04/03 11:52:43;;;;;;;2.17;0.67;;;18.80;34.90;;;;;;5011975;28;20641;-74
2023/04/03 11:55:21;;;;;;;1.97;0.60;;;18.60;35.60;;;;;;4994878;28;20604;-74
2023/04/03 11:57:59;;;;;;;1.50;0.60;;;18.50;36.40;;;;;;4994380;28;20577;-74
2023/04/03 12:00:44;;;;;;;1.30;0.60;;;18.20;35.90;;;;;;5012580;28;20574;-74
2023/04/03 12:03:26;;;;;;;1.70;0.57;;;18.10;36.70;;;;;;4991794;28;20634;-75
2023/04/03 12:05:54;;;;;;;1.63;0.50;;;18.00;33.10;;;;;;5000657;28;20594;-74
2023/04/03 12:08:34;;;;;;;3.23;0.87;;;18.00;37.00;;;;;;5008812;28;20607;-74
2023/04/03 12:11:12;;;;;;;1.63;0.60;;;18.00;33.90;;;;;;4979911;28;20749;-75
2023/04/03 12:13:48;;;;;;;5.33;0.90;;;17.80;36.60;;;;;;4971332;28;20598;-75
2023/04/03 12:16:37;;;;;;;4.30;0.50;;;17.90;38.20;;;;;;4972324;28;21164;-74
2023/04/03 12:19:04;;;;;;;3.20;0.73;;;17.90;37.40;;;;;;4981192;28;20589;-74
2023/04/03 12:21:35;;;;;;;1.80;0.60;;;17.80;37.20;;;;;;4990564;28;20582;-74
2023/04/03 12:24:02;;;;;;;1.60;0.60;;;17.80;38.30;;;;;;4958376;28;20610;-74
2023/04/03 12:26:43;;;;;;;1.57;0.60;;;17.80;37.90;;;;;;4991277;28;20679;-74
2023/04/03 12:29:20;;;;;;;1.67;0.50;;;17.70;37.00;;;;;;4991070;28;20988;-74
2023/04/03 12:32:14;;;;;;;1.70;0.60;;;17.70;36.30;;;;;;4990614;28;20643;-74
2023/04/03 12:35:01;;;;;;;1.60;0.50;;;17.70;37.60;;;;;;4958723;28;20610;-74
2023/04/03 12:38:08;;;;;;;1.50;0.50;;;17.60;34.90;;;;;;4990796;28;20648;-75
2023/04/03 12:40:46;;;;;;;1.50;0.50;;;17.40;37.20;;;;;;4994702;28;20618;-74
2023/04/03 12:43:30;;;;;;;1.67;0.57;;;17.50;37.70;;;;;;5007416;28;20591;-75
2023/04/03 12:46:12;;;;;;;1.60;0.50;;;17.30;37.20;;;;;;5009256;28;20911;-74
2023/04/03 12:48:47;;;;;;;1.80;0.60;;;17.30;37.80;;;;;;5011648;28;20581;-74
2023/04/03 12:51:29;;;;;;;3.20;0.60;;;17.30;37.50;;;;;;5009650;28;20639;-75
2023/04/03 12:54:03;;;;;;;3.37;0.70;;;17.10;35.80;;;;;;4993831;28;20624;-75
2023/04/03 12:56:32;;;;;;;2.40;0.60;;;17.00;35.40;;;;;;5012101;28;20972;-80
2023/04/03 12:59:21;;;;;;;1.50;0.60;;;16.60;35.10;;;;;;5011220;28;20573;-79
2023/04/03 13:02:01;;;;;;;1.63;0.53;;;16.30;35.50;;;;;;5006531;28;20594;-80
2023/04/03 13:04:29;;;;;;;2.37;0.60;;;16.10;35.80;;;;;;4973679;28;20641;-80
2023/04/03 13:06:55;;;;;;;1.47;0.60;;;15.90;34.10;;;;;;4991860;28;20582;-80
2023/04/03 13:09:23;;;;;;;1.30;0.50;;;15.80;36.00;;;;;;4991102;28;20609;-80
2023/04/03 13:11:56;;;;;;;1.60;0.60;;;15.60;35.00;;;;;;4991614;28;20500;-80
2023/04/03 13:14:24;;;;;;;2.00;0.60;;;15.30;34.40;;;;;;4991601;28;20599;-81